sensor_id;sensor_type;location;lat;lon;timestamp;P1;durP1;ratioP1;P2;durP2;ratioP2
69847;SDS011;57143;55.940;37.496;2023-05-16T00:02:00;17.33;;;6.83;;
69847;SDS011;57143;55.940;37.496;2023-05-16T00:04:28;20.95;;;8.75;;
69847;SDS011;57143;55.940;37.496;2023-05-16T00:06:56;21.38;;;8.35;;
69847;SDS011;57143;55.940;37.496;2023-05-16T00:09:25;16.20;;;8.75;;
69847;SDS011;57143;55.940;37.496;2023-05-16T00:11:52;20.75;;;8.32;;
69847;SDS011;57143;55.940;37.496;2023-05-16T00:14:19;17.20;;;7.87;;
69847;SDS011;57143;55.940;37.496;2023-05-16T00:16:46;16.42;;;6.38;;
69847;SDS011;57143;55.940;37.496;2023-05-16T00:19:13;19.05;;;7.43;;
69847;SDS011;57143;55.940;37.496;2023-05-16T00:21:41;16.38;;;7.40;;
69847;SDS011;57143;55.940;37.496;2023-05-16T00:24:09;17.15;;;7.20;;
69847;SDS011;57143;55.940;37.496;2023-05-16T00:26:37;19.03;;;7.97;;
69847;SDS011;57143;55.940;37.496;2023-05-16T00:29:04;21.25;;;8.02;;
69847;SDS011;57143;55.940;37.496;2023-05-16T00:31:32;20.90;;;8.15;;
69847;SDS011;57143;55.940;37.496;2023-05-16T00:34:00;15.70;;;8.02;;
69847;SDS011;57143;55.940;37.496;2023-05-16T00:36:27;21.13;;;8.35;;
69847;SDS011;57143;55.940;37.496;2023-05-16T00:38:56;21.60;;;8.30;;
69847;SDS011;57143;55.940;37.496;2023-05-16T00:41:23;20.10;;;8.43;;
69847;SDS011;57143;55.940;37.496;2023-05-16T00:43:52;21.42;;;9.10;;
69847;SDS011;57143;55.940;37.496;2023-05-16T00:46:19;18.40;;;8.75;;
69847;SDS011;57143;55.940;37.496;2023-05-16T00:48:46;24.30;;;8.55;;
69847;SDS011;57143;55.940;37.496;2023-05-16T00:51:14;19.13;;;8.37;;
69847;SDS011;57143;55.940;37.496;2023-05-16T00:53:41;16.75;;;8.32;;
69847;SDS011;57143;55.940;37.496;2023-05-16T00:56:09;20.35;;;8.50;;
69847;SDS011;57143;55.940;37.496;2023-05-16T00:58:36;13.90;;;6.20;;
69847;SDS011;57143;55.940;37.496;2023-05-16T01:01:04;20.73;;;8.05;;
69847;SDS011;57143;55.940;37.496;2023-05-16T01:03:32;17.10;;;7.60;;
69847;SDS011;57143;55.940;37.496;2023-05-16T01:05:59;23.48;;;8.70;;
69847;SDS011;57143;55.940;37.496;2023-05-16T01:08:26;22.33;;;8.65;;
69847;SDS011;57143;55.940;37.496;2023-05-16T01:10:57;17.17;;;7.20;;
69847;SDS011;57143;55.940;37.496;2023-05-16T01:13:34;17.30;;;6.63;;
69847;SDS011;57143;55.940;37.496;2023-05-16T01:16:12;14.00;;;5.87;;
69847;SDS011;57143;55.940;37.496;2023-05-16T01:18:49;23.65;;;6.65;;
69847;SDS011;57143;55.940;37.496;2023-05-16T01:21:30;18.17;;;7.22;;
69847;SDS011;57143;55.940;37.496;2023-05-16T01:24:09;18.17;;;6.68;;
69847;SDS011;57143;55.940;37.496;2023-05-16T01:26:42;16.60;;;6.22;;
69847;SDS011;57143;55.940;37.496;2023-05-16T01:29:10;16.93;;;6.73;;
69847;SDS011;57143;55.940;37.496;2023-05-16T01:31:38;18.48;;;7.18;;
69847;SDS011;57143;55.940;37.496;2023-05-16T01:34:05;16.73;;;5.93;;
69847;SDS011;57143;55.940;37.496;2023-05-16T01:36:34;12.05;;;4.88;;
69847;SDS011;57143;55.940;37.496;2023-05-16T01:39:10;13.20;;;4.65;;
69847;SDS011;57143;55.940;37.496;2023-05-16T01:41:48;13.00;;;5.63;;
69847;SDS011;57143;55.940;37.496;2023-05-16T01:44:22;16.63;;;6.22;;
69847;SDS011;57143;55.940;37.496;2023-05-16T01:46:57;15.50;;;5.70;;
69847;SDS011;57143;55.940;37.496;2023-05-16T01:49:29;16.75;;;5.60;;
69847;SDS011;57143;55.940;37.496;2023-05-16T01:52:04;12.48;;;5.63;;
69847;SDS011;57143;55.940;37.496;2023-05-16T01:54:36;14.67;;;5.50;;
69847;SDS011;57143;55.940;37.496;2023-05-16T01:57:06;14.35;;;5.38;;
69847;SDS011;57143;55.940;37.496;2023-05-16T01:59:35;12.95;;;5.43;;
69847;SDS011;57143;55.940;37.496;2023-05-16T02:02:04;15.45;;;6.40;;
69847;SDS011;57143;55.940;37.496;2023-05-16T02:04:31;15.10;;;5.97;;
69847;SDS011;57143;55.940;37.496;2023-05-16T02:07:01;14.47;;;6.40;;
69847;SDS011;57143;55.940;37.496;2023-05-16T02:09:28;12.90;;;5.60;;
69847;SDS011;57143;55.940;37.496;2023-05-16T02:11:55;16.88;;;6.22;;
69847;SDS011;57143;55.940;37.496;2023-05-16T02:14:24;17.30;;;6.53;;
69847;SDS011;57143;55.940;37.496;2023-05-16T02:16:52;11.70;;;5.88;;
69847;SDS011;57143;55.940;37.496;2023-05-16T02:19:19;14.80;;;6.03;;
69847;SDS011;57143;55.940;37.496;2023-05-16T02:21:46;13.23;;;5.20;;
69847;SDS011;57143;55.940;37.496;2023-05-16T02:24:13;13.65;;;5.90;;
69847;SDS011;57143;55.940;37.496;2023-05-16T02:26:41;14.13;;;5.72;;
69847;SDS011;57143;55.940;37.496;2023-05-16T02:29:08;13.20;;;6.18;;
69847;SDS011;57143;55.940;37.496;2023-05-16T02:31:37;14.03;;;6.10;;
69847;SDS011;57143;55.940;37.496;2023-05-16T02:34:04;15.80;;;6.20;;
69847;SDS011;57143;55.940;37.496;2023-05-16T02:36:31;14.60;;;6.60;;
69847;SDS011;57143;55.940;37.496;2023-05-16T02:39:00;15.73;;;5.95;;
69847;SDS011;57143;55.940;37.496;2023-05-16T02:41:28;15.75;;;6.70;;
69847;SDS011;57143;55.940;37.496;2023-05-16T02:43:56;17.63;;;7.03;;
69847;SDS011;57143;55.940;37.496;2023-05-16T02:46:23;14.10;;;6.57;;
69847;SDS011;57143;55.940;37.496;2023-05-16T02:48:53;13.55;;;6.63;;
69847;SDS011;57143;55.940;37.496;2023-05-16T02:51:21;15.45;;;6.70;;
69847;SDS011;57143;55.940;37.496;2023-05-16T02:53:50;16.30;;;6.50;;
69847;SDS011;57143;55.940;37.496;2023-05-16T02:56:17;14.20;;;7.13;;
69847;SDS011;57143;55.940;37.496;2023-05-16T02:58:46;16.15;;;6.80;;
69847;SDS011;57143;55.940;37.496;2023-05-16T03:01:15;13.68;;;5.80;;
69847;SDS011;57143;55.940;37.496;2023-05-16T03:03:42;14.30;;;6.43;;
69847;SDS011;57143;55.940;37.496;2023-05-16T03:06:11;15.40;;;6.47;;
69847;SDS011;57143;55.940;37.496;2023-05-16T03:08:38;15.20;;;6.30;;
69847;SDS011;57143;55.940;37.496;2023-05-16T03:11:05;15.02;;;6.95;;
69847;SDS011;57143;55.940;37.496;2023-05-16T03:13:33;17.95;;;6.80;;
69847;SDS011;57143;55.940;37.496;2023-05-16T03:16:00;18.92;;;7.00;;
69847;SDS011;57143;55.940;37.496;2023-05-16T03:18:27;12.52;;;5.82;;
69847;SDS011;57143;55.940;37.496;2023-05-16T03:20:54;15.47;;;6.10;;
69847;SDS011;57143;55.940;37.496;2023-05-16T03:23:24;15.82;;;6.25;;
69847;SDS011;57143;55.940;37.496;2023-05-16T03:25:51;16.58;;;6.30;;
69847;SDS011;57143;55.940;37.496;2023-05-16T03:28:18;11.57;;;4.90;;
69847;SDS011;57143;55.940;37.496;2023-05-16T03:30:46;14.35;;;5.97;;
69847;SDS011;57143;55.940;37.496;2023-05-16T03:33:13;12.60;;;6.50;;
69847;SDS011;57143;55.940;37.496;2023-05-16T03:35:40;13.30;;;6.00;;
69847;SDS011;57143;55.940;37.496;2023-05-16T03:38:09;18.02;;;5.85;;
69847;SDS011;57143;55.940;37.496;2023-05-16T03:40:38;12.82;;;5.53;;
69847;SDS011;57143;55.940;37.496;2023-05-16T03:43:05;13.57;;;6.00;;
69847;SDS011;57143;55.940;37.496;2023-05-16T03:45:32;14.60;;;6.30;;
69847;SDS011;57143;55.940;37.496;2023-05-16T03:48:00;12.30;;;5.70;;
69847;SDS011;57143;55.940;37.496;2023-05-16T03:50:27;15.70;;;5.35;;
69847;SDS011;57143;55.940;37.496;2023-05-16T03:52:54;15.73;;;6.03;;
69847;SDS011;57143;55.940;37.496;2023-05-16T03:55:21;14.52;;;5.68;;
69847;SDS011;57143;55.940;37.496;2023-05-16T03:57:50;19.47;;;5.57;;
69847;SDS011;57143;55.940;37.496;2023-05-16T04:00:17;20.73;;;6.70;;
69847;SDS011;57143;55.940;37.496;2023-05-16T04:02:44;16.48;;;5.07;;
69847;SDS011;57143;55.940;37.496;2023-05-16T04:05:12;16.58;;;5.25;;
69847;SDS011;57143;55.940;37.496;2023-05-16T04:07:39;17.52;;;5.45;;
69847;SDS011;57143;55.940;37.496;2023-05-16T04:10:07;13.50;;;5.10;;
69847;SDS011;57143;55.940;37.496;2023-05-16T04:12:35;18.55;;;5.03;;
69847;SDS011;57143;55.940;37.496;2023-05-16T04:15:05;19.15;;;5.72;;
69847;SDS011;57143;55.940;37.496;2023-05-16T04:17:33;16.40;;;5.60;;
69847;SDS011;57143;55.940;37.496;2023-05-16T04:20:00;18.30;;;4.68;;
69847;SDS011;57143;55.940;37.496;2023-05-16T04:22:31;14.13;;;4.43;;
69847;SDS011;57143;55.940;37.496;2023-05-16T04:24:58;19.38;;;5.18;;
69847;SDS011;57143;55.940;37.496;2023-05-16T04:27:25;18.77;;;4.95;;
69847;SDS011;57143;55.940;37.496;2023-05-16T04:29:53;13.70;;;4.10;;
69847;SDS011;57143;55.940;37.496;2023-05-16T04:32:21;12.85;;;4.93;;
69847;SDS011;57143;55.940;37.496;2023-05-16T04:34:49;15.17;;;4.60;;
69847;SDS011;57143;55.940;37.496;2023-05-16T04:37:17;12.27;;;4.63;;
69847;SDS011;57143;55.940;37.496;2023-05-16T04:39:45;21.08;;;5.05;;
69847;SDS011;57143;55.940;37.496;2023-05-16T04:42:12;20.98;;;5.60;;
69847;SDS011;57143;55.940;37.496;2023-05-16T04:44:40;10.70;;;4.75;;
69847;SDS011;57143;55.940;37.496;2023-05-16T04:47:08;13.90;;;4.53;;
69847;SDS011;57143;55.940;37.496;2023-05-16T04:49:36;12.25;;;4.70;;
69847;SDS011;57143;55.940;37.496;2023-05-16T04:52:04;13.90;;;5.00;;
69847;SDS011;57143;55.940;37.496;2023-05-16T04:54:32;10.10;;;4.90;;
69847;SDS011;57143;55.940;37.496;2023-05-16T04:57:00;13.07;;;4.85;;
69847;SDS011;57143;55.940;37.496;2023-05-16T04:59:27;10.87;;;4.57;;
69847;SDS011;57143;55.940;37.496;2023-05-16T05:01:54;11.30;;;4.70;;
69847;SDS011;57143;55.940;37.496;2023-05-16T05:04:21;11.88;;;5.13;;
69847;SDS011;57143;55.940;37.496;2023-05-16T05:06:50;11.98;;;4.40;;
69847;SDS011;57143;55.940;37.496;2023-05-16T05:09:17;9.18;;;4.40;;
69847;SDS011;57143;55.940;37.496;2023-05-16T05:11:44;15.90;;;4.93;;
69847;SDS011;57143;55.940;37.496;2023-05-16T05:14:12;8.25;;;3.80;;
69847;SDS011;57143;55.940;37.496;2023-05-16T05:16:39;10.70;;;4.60;;
69847;SDS011;57143;55.940;37.496;2023-05-16T05:19:06;12.60;;;4.15;;
69847;SDS011;57143;55.940;37.496;2023-05-16T05:21:33;12.90;;;3.80;;
69847;SDS011;57143;55.940;37.496;2023-05-16T05:24:02;13.67;;;3.80;;
69847;SDS011;57143;55.940;37.496;2023-05-16T05:26:29;10.70;;;3.72;;
69847;SDS011;57143;55.940;37.496;2023-05-16T05:28:56;10.15;;;4.18;;
69847;SDS011;57143;55.940;37.496;2023-05-16T05:31:24;12.93;;;3.75;;
69847;SDS011;57143;55.940;37.496;2023-05-16T05:33:51;10.10;;;3.75;;
69847;SDS011;57143;55.940;37.496;2023-05-16T05:36:19;10.33;;;3.50;;
69847;SDS011;57143;55.940;37.496;2023-05-16T05:38:46;12.32;;;3.40;;
69847;SDS011;57143;55.940;37.496;2023-05-16T05:41:14;11.57;;;2.40;;
69847;SDS011;57143;55.940;37.496;2023-05-16T05:43:41;7.63;;;2.97;;
69847;SDS011;57143;55.940;37.496;2023-05-16T05:46:09;13.45;;;3.10;;
69847;SDS011;57143;55.940;37.496;2023-05-16T05:48:36;8.47;;;2.47;;
69847;SDS011;57143;55.940;37.496;2023-05-16T05:51:03;6.90;;;2.40;;
69847;SDS011;57143;55.940;37.496;2023-05-16T05:53:31;6.78;;;2.33;;
69847;SDS011;57143;55.940;37.496;2023-05-16T05:55:58;6.72;;;2.20;;
69847;SDS011;57143;55.940;37.496;2023-05-16T05:58:26;6.85;;;2.83;;
69847;SDS011;57143;55.940;37.496;2023-05-16T06:00:54;11.70;;;2.50;;
69847;SDS011;57143;55.940;37.496;2023-05-16T06:03:21;11.07;;;2.75;;
69847;SDS011;57143;55.940;37.496;2023-05-16T06:05:48;10.13;;;2.47;;
69847;SDS011;57143;55.940;37.496;2023-05-16T06:08:16;15.90;;;2.63;;
69847;SDS011;57143;55.940;37.496;2023-05-16T06:10:43;7.43;;;2.40;;
69847;SDS011;57143;55.940;37.496;2023-05-16T06:13:10;7.53;;;2.30;;
69847;SDS011;57143;55.940;37.496;2023-05-16T06:15:39;7.60;;;2.58;;
69847;SDS011;57143;55.940;37.496;2023-05-16T06:18:06;11.05;;;2.83;;
69847;SDS011;57143;55.940;37.496;2023-05-16T06:20:33;8.05;;;2.65;;
69847;SDS011;57143;55.940;37.496;2023-05-16T06:23:01;9.60;;;2.70;;
69847;SDS011;57143;55.940;37.496;2023-05-16T06:25:28;7.13;;;2.13;;
69847;SDS011;57143;55.940;37.496;2023-05-16T06:27:55;6.13;;;2.08;;
69847;SDS011;57143;55.940;37.496;2023-05-16T06:30:22;7.22;;;2.15;;
69847;SDS011;57143;55.940;37.496;2023-05-16T06:32:51;9.57;;;2.58;;
69847;SDS011;57143;55.940;37.496;2023-05-16T06:35:18;7.78;;;2.30;;
69847;SDS011;57143;55.940;37.496;2023-05-16T06:37:46;9.67;;;2.30;;
69847;SDS011;57143;55.940;37.496;2023-05-16T06:40:13;10.38;;;2.13;;
69847;SDS011;57143;55.940;37.496;2023-05-16T06:42:40;8.48;;;2.20;;
69847;SDS011;57143;55.940;37.496;2023-05-16T06:45:08;5.45;;;1.90;;
69847;SDS011;57143;55.940;37.496;2023-05-16T06:47:35;6.97;;;2.53;;
69847;SDS011;57143;55.940;37.496;2023-05-16T06:50:05;11.87;;;2.50;;
69847;SDS011;57143;55.940;37.496;2023-05-16T06:52:34;7.75;;;2.40;;
69847;SDS011;57143;55.940;37.496;2023-05-16T06:55:01;7.85;;;2.20;;
69847;SDS011;57143;55.940;37.496;2023-05-16T06:57:30;7.00;;;2.63;;
69847;SDS011;57143;55.940;37.496;2023-05-16T06:59:57;6.30;;;1.90;;
69847;SDS011;57143;55.940;37.496;2023-05-16T07:02:25;7.77;;;2.57;;
69847;SDS011;57143;55.940;37.496;2023-05-16T07:04:52;7.22;;;2.08;;
69847;SDS011;57143;55.940;37.496;2023-05-16T07:07:21;6.57;;;2.22;;
69847;SDS011;57143;55.940;37.496;2023-05-16T07:09:48;7.15;;;1.85;;
69847;SDS011;57143;55.940;37.496;2023-05-16T07:12:15;7.22;;;1.90;;
69847;SDS011;57143;55.940;37.496;2023-05-16T07:14:42;8.10;;;1.93;;
69847;SDS011;57143;55.940;37.496;2023-05-16T07:17:09;5.53;;;1.95;;
69847;SDS011;57143;55.940;37.496;2023-05-16T07:19:37;5.40;;;2.00;;
69847;SDS011;57143;55.940;37.496;2023-05-16T07:22:04;6.07;;;1.75;;
69847;SDS011;57143;55.940;37.496;2023-05-16T07:24:32;4.75;;;1.77;;
69847;SDS011;57143;55.940;37.496;2023-05-16T07:27:00;7.57;;;1.73;;
69847;SDS011;57143;55.940;37.496;2023-05-16T07:29:27;7.43;;;1.58;;
69847;SDS011;57143;55.940;37.496;2023-05-16T07:31:55;6.93;;;2.08;;
69847;SDS011;57143;55.940;37.496;2023-05-16T07:34:23;6.50;;;1.73;;
69847;SDS011;57143;55.940;37.496;2023-05-16T07:36:50;8.32;;;1.60;;
69847;SDS011;57143;55.940;37.496;2023-05-16T07:39:18;4.60;;;1.70;;
69847;SDS011;57143;55.940;37.496;2023-05-16T07:41:46;5.40;;;1.70;;
69847;SDS011;57143;55.940;37.496;2023-05-16T07:44:13;4.80;;;1.63;;
69847;SDS011;57143;55.940;37.496;2023-05-16T07:46:41;7.20;;;1.70;;
69847;SDS011;57143;55.940;37.496;2023-05-16T07:49:09;5.95;;;1.55;;
69847;SDS011;57143;55.940;37.496;2023-05-16T07:51:36;5.47;;;1.50;;
69847;SDS011;57143;55.940;37.496;2023-05-16T07:54:03;8.43;;;1.60;;
69847;SDS011;57143;55.940;37.496;2023-05-16T07:56:30;4.82;;;1.65;;
69847;SDS011;57143;55.940;37.496;2023-05-16T07:58:59;5.95;;;1.90;;
69847;SDS011;57143;55.940;37.496;2023-05-16T08:01:26;4.30;;;1.35;;
69847;SDS011;57143;55.940;37.496;2023-05-16T08:03:54;5.27;;;1.73;;
69847;SDS011;57143;55.940;37.496;2023-05-16T08:06:21;6.20;;;1.73;;
69847;SDS011;57143;55.940;37.496;2023-05-16T08:08:48;5.35;;;1.63;;
69847;SDS011;57143;55.940;37.496;2023-05-16T08:11:15;5.60;;;1.30;;
69847;SDS011;57143;55.940;37.496;2023-05-16T08:13:42;4.55;;;1.50;;
69847;SDS011;57143;55.940;37.496;2023-05-16T08:16:11;8.20;;;1.40;;
69847;SDS011;57143;55.940;37.496;2023-05-16T08:18:38;6.32;;;1.50;;
69847;SDS011;57143;55.940;37.496;2023-05-16T08:21:07;7.30;;;1.33;;
69847;SDS011;57143;55.940;37.496;2023-05-16T08:23:34;5.70;;;1.40;;
69847;SDS011;57143;55.940;37.496;2023-05-16T08:26:01;6.25;;;1.63;;
69847;SDS011;57143;55.940;37.496;2023-05-16T08:28:29;5.50;;;1.40;;
69847;SDS011;57143;55.940;37.496;2023-05-16T08:30:56;6.13;;;1.58;;
69847;SDS011;57143;55.940;37.496;2023-05-16T08:33:25;6.55;;;1.40;;
69847;SDS011;57143;55.940;37.496;2023-05-16T08:35:52;5.95;;;1.50;;
69847;SDS011;57143;55.940;37.496;2023-05-16T08:38:19;4.35;;;1.40;;
69847;SDS011;57143;55.940;37.496;2023-05-16T08:40:46;6.33;;;1.50;;
69847;SDS011;57143;55.940;37.496;2023-05-16T08:43:13;7.63;;;1.50;;
69847;SDS011;57143;55.940;37.496;2023-05-16T08:45:41;10.05;;;1.30;;
69847;SDS011;57143;55.940;37.496;2023-05-16T08:48:09;6.15;;;1.50;;
69847;SDS011;57143;55.940;37.496;2023-05-16T08:50:38;5.07;;;1.30;;
69847;SDS011;57143;55.940;37.496;2023-05-16T08:53:07;5.20;;;1.70;;
69847;SDS011;57143;55.940;37.496;2023-05-16T08:55:37;4.82;;;1.67;;
69847;SDS011;57143;55.940;37.496;2023-05-16T08:58:06;6.88;;;1.58;;
69847;SDS011;57143;55.940;37.496;2023-05-16T09:00:34;5.22;;;1.20;;
69847;SDS011;57143;55.940;37.496;2023-05-16T09:03:01;5.53;;;1.30;;
69847;SDS011;57143;55.940;37.496;2023-05-16T09:05:29;5.37;;;1.50;;
69847;SDS011;57143;55.940;37.496;2023-05-16T09:07:58;5.95;;;1.50;;
69847;SDS011;57143;55.940;37.496;2023-05-16T09:10:25;8.02;;;1.42;;
69847;SDS011;57143;55.940;37.496;2023-05-16T09:12:52;8.10;;;1.98;;
69847;SDS011;57143;55.940;37.496;2023-05-16T09:15:19;10.00;;;1.58;;
69847;SDS011;57143;55.940;37.496;2023-05-16T09:17:47;7.53;;;1.87;;
69847;SDS011;57143;55.940;37.496;2023-05-16T09:20:15;6.57;;;1.80;;
69847;SDS011;57143;55.940;37.496;2023-05-16T09:22:49;7.97;;;1.33;;
69847;SDS011;57143;55.940;37.496;2023-05-16T09:25:19;4.07;;;1.15;;
69847;SDS011;57143;55.940;37.496;2023-05-16T09:27:47;8.57;;;1.40;;
69847;SDS011;57143;55.940;37.496;2023-05-16T09:30:20;7.53;;;1.23;;
69847;SDS011;57143;55.940;37.496;2023-05-16T09:32:50;5.95;;;1.58;;
69847;SDS011;57143;55.940;37.496;2023-05-16T09:35:19;6.45;;;1.30;;
69847;SDS011;57143;55.940;37.496;2023-05-16T09:37:48;5.13;;;1.20;;
69847;SDS011;57143;55.940;37.496;2023-05-16T09:40:20;5.50;;;1.60;;
69847;SDS011;57143;55.940;37.496;2023-05-16T09:42:51;8.87;;;1.27;;
69847;SDS011;57143;55.940;37.496;2023-05-16T09:45:28;7.15;;;0.90;;
69847;SDS011;57143;55.940;37.496;2023-05-16T09:47:59;6.35;;;1.45;;
69847;SDS011;57143;55.940;37.496;2023-05-16T09:50:31;8.13;;;1.40;;
69847;SDS011;57143;55.940;37.496;2023-05-16T09:52:59;8.85;;;1.20;;
69847;SDS011;57143;55.940;37.496;2023-05-16T09:55:29;3.70;;;0.90;;
69847;SDS011;57143;55.940;37.496;2023-05-16T09:57:56;6.80;;;1.60;;
69847;SDS011;57143;55.940;37.496;2023-05-16T10:00:27;5.57;;;1.23;;
69847;SDS011;57143;55.940;37.496;2023-05-16T10:02:55;6.13;;;1.20;;
69847;SDS011;57143;55.940;37.496;2023-05-16T10:05:23;4.10;;;1.17;;
69847;SDS011;57143;55.940;37.496;2023-05-16T10:07:53;4.60;;;1.30;;
69847;SDS011;57143;55.940;37.496;2023-05-16T10:10:22;6.65;;;1.08;;
69847;SDS011;57143;55.940;37.496;2023-05-16T10:12:51;5.10;;;1.25;;
69847;SDS011;57143;55.940;37.496;2023-05-16T10:15:19;5.90;;;1.50;;
69847;SDS011;57143;55.940;37.496;2023-05-16T10:17:48;5.80;;;1.30;;
69847;SDS011;57143;55.940;37.496;2023-05-16T10:20:17;8.23;;;1.60;;
69847;SDS011;57143;55.940;37.496;2023-05-16T10:22:47;10.43;;;1.50;;
69847;SDS011;57143;55.940;37.496;2023-05-16T10:25:20;6.15;;;1.35;;
69847;SDS011;57143;55.940;37.496;2023-05-16T10:27:53;6.43;;;1.30;;
69847;SDS011;57143;55.940;37.496;2023-05-16T10:30:21;6.78;;;1.35;;
69847;SDS011;57143;55.940;37.496;2023-05-16T10:32:48;9.57;;;1.13;;
69847;SDS011;57143;55.940;37.496;2023-05-16T10:35:17;5.57;;;1.15;;
69847;SDS011;57143;55.940;37.496;2023-05-16T10:37:45;12.00;;;1.50;;
69847;SDS011;57143;55.940;37.496;2023-05-16T10:40:13;4.72;;;1.30;;
69847;SDS011;57143;55.940;37.496;2023-05-16T10:42:43;6.35;;;1.60;;
69847;SDS011;57143;55.940;37.496;2023-05-16T10:45:22;7.97;;;1.20;;
69847;SDS011;57143;55.940;37.496;2023-05-16T10:47:50;5.38;;;1.27;;
69847;SDS011;57143;55.940;37.496;2023-05-16T10:50:30;4.95;;;1.50;;
69847;SDS011;57143;55.940;37.496;2023-05-16T10:55:50;6.05;;;1.40;;
69847;SDS011;57143;55.940;37.496;2023-05-16T10:58:42;7.20;;;1.77;;
69847;SDS011;57143;55.940;37.496;2023-05-16T11:01:19;6.82;;;1.40;;
69847;SDS011;57143;55.940;37.496;2023-05-16T11:04:01;4.15;;;1.20;;
69847;SDS011;57143;55.940;37.496;2023-05-16T11:06:51;8.93;;;1.48;;
69847;SDS011;57143;55.940;37.496;2023-05-16T11:09:22;6.57;;;1.40;;
69847;SDS011;57143;55.940;37.496;2023-05-16T11:11:58;7.80;;;1.60;;
69847;SDS011;57143;55.940;37.496;2023-05-16T11:14:28;4.88;;;1.52;;
69847;SDS011;57143;55.940;37.496;2023-05-16T11:17:05;6.70;;;1.83;;
69847;SDS011;57143;55.940;37.496;2023-05-16T11:19:34;5.18;;;1.55;;
69847;SDS011;57143;55.940;37.496;2023-05-16T11:22:07;6.78;;;1.77;;
69847;SDS011;57143;55.940;37.496;2023-05-16T11:24:53;4.73;;;1.33;;
69847;SDS011;57143;55.940;37.496;2023-05-16T11:27:22;5.22;;;1.70;;
69847;SDS011;57143;55.940;37.496;2023-05-16T11:29:54;5.07;;;1.63;;
69847;SDS011;57143;55.940;37.496;2023-05-16T11:32:26;10.05;;;1.85;;
69847;SDS011;57143;55.940;37.496;2023-05-16T11:34:53;4.60;;;1.40;;
69847;SDS011;57143;55.940;37.496;2023-05-16T11:37:20;9.67;;;1.83;;
69847;SDS011;57143;55.940;37.496;2023-05-16T11:39:47;6.22;;;1.38;;
69847;SDS011;57143;55.940;37.496;2023-05-16T11:42:14;6.03;;;1.30;;
69847;SDS011;57143;55.940;37.496;2023-05-16T11:44:42;5.03;;;1.30;;
69847;SDS011;57143;55.940;37.496;2023-05-16T11:47:10;5.00;;;1.48;;
69847;SDS011;57143;55.940;37.496;2023-05-16T11:49:39;11.53;;;2.10;;
69847;SDS011;57143;55.940;37.496;2023-05-16T11:52:06;7.07;;;2.00;;
69847;SDS011;57143;55.940;37.496;2023-05-16T11:54:34;7.82;;;1.70;;
69847;SDS011;57143;55.940;37.496;2023-05-16T11:57:02;8.48;;;1.63;;
69847;SDS011;57143;55.940;37.496;2023-05-16T11:59:29;7.32;;;1.85;;
69847;SDS011;57143;55.940;37.496;2023-05-16T12:01:56;8.73;;;1.80;;
69847;SDS011;57143;55.940;37.496;2023-05-16T12:04:23;6.95;;;1.50;;
69847;SDS011;57143;55.940;37.496;2023-05-16T12:06:59;5.97;;;1.70;;
69847;SDS011;57143;55.940;37.496;2023-05-16T12:09:27;7.72;;;1.58;;
69847;SDS011;57143;55.940;37.496;2023-05-16T12:11:55;14.27;;;2.47;;
69847;SDS011;57143;55.940;37.496;2023-05-16T12:14:22;10.67;;;2.03;;
69847;SDS011;57143;55.940;37.496;2023-05-16T12:16:50;6.70;;;1.80;;
69847;SDS011;57143;55.940;37.496;2023-05-16T12:19:18;9.82;;;1.70;;
69847;SDS011;57143;55.940;37.496;2023-05-16T12:21:47;4.93;;;1.50;;
69847;SDS011;57143;55.940;37.496;2023-05-16T12:24:19;7.70;;;1.60;;
69847;SDS011;57143;55.940;37.496;2023-05-16T12:26:47;6.90;;;1.80;;
69847;SDS011;57143;55.940;37.496;2023-05-16T12:29:14;5.35;;;1.48;;
69847;SDS011;57143;55.940;37.496;2023-05-16T12:31:42;5.05;;;1.70;;
69847;SDS011;57143;55.940;37.496;2023-05-16T12:34:15;5.75;;;1.60;;
69847;SDS011;57143;55.940;37.496;2023-05-16T12:36:43;6.40;;;1.67;;
69847;SDS011;57143;55.940;37.496;2023-05-16T12:39:11;5.90;;;1.47;;
69847;SDS011;57143;55.940;37.496;2023-05-16T12:41:41;7.47;;;2.10;;
69847;SDS011;57143;55.940;37.496;2023-05-16T12:44:12;7.00;;;2.70;;
69847;SDS011;57143;55.940;37.496;2023-05-16T12:46:42;9.07;;;2.47;;
69847;SDS011;57143;55.940;37.496;2023-05-16T12:49:10;9.75;;;2.70;;
69847;SDS011;57143;55.940;37.496;2023-05-16T12:51:38;8.17;;;2.80;;
69847;SDS011;57143;55.940;37.496;2023-05-16T12:54:07;5.47;;;2.28;;
69847;SDS011;57143;55.940;37.496;2023-05-16T12:56:36;9.23;;;3.45;;
69847;SDS011;57143;55.940;37.496;2023-05-16T12:59:05;6.63;;;2.47;;
69847;SDS011;57143;55.940;37.496;2023-05-16T13:01:33;8.63;;;2.78;;
69847;SDS011;57143;55.940;37.496;2023-05-16T13:04:01;9.33;;;2.50;;
69847;SDS011;57143;55.940;37.496;2023-05-16T13:06:28;8.93;;;2.97;;
69847;SDS011;57143;55.940;37.496;2023-05-16T13:08:56;7.90;;;2.70;;
69847;SDS011;57143;55.940;37.496;2023-05-16T13:11:24;9.18;;;2.90;;
69847;SDS011;57143;55.940;37.496;2023-05-16T13:13:51;6.72;;;3.03;;
69847;SDS011;57143;55.940;37.496;2023-05-16T13:16:20;8.97;;;2.90;;
69847;SDS011;57143;55.940;37.496;2023-05-16T13:18:47;8.77;;;2.60;;
69847;SDS011;57143;55.940;37.496;2023-05-16T13:21:15;8.10;;;2.10;;
69847;SDS011;57143;55.940;37.496;2023-05-16T13:23:43;7.38;;;1.90;;
69847;SDS011;57143;55.940;37.496;2023-05-16T13:26:10;7.03;;;2.35;;
69847;SDS011;57143;55.940;37.496;2023-05-16T13:28:37;6.27;;;2.00;;
69847;SDS011;57143;55.940;37.496;2023-05-16T13:31:05;6.75;;;1.88;;
69847;SDS011;57143;55.940;37.496;2023-05-16T13:33:33;9.63;;;2.70;;
69847;SDS011;57143;55.940;37.496;2023-05-16T13:36:03;11.90;;;2.67;;
69847;SDS011;57143;55.940;37.496;2023-05-16T13:38:31;6.60;;;1.80;;
69847;SDS011;57143;55.940;37.496;2023-05-16T13:40:58;10.93;;;2.70;;
69847;SDS011;57143;55.940;37.496;2023-05-16T13:43:25;6.47;;;2.40;;
69847;SDS011;57143;55.940;37.496;2023-05-16T13:45:53;8.18;;;3.05;;
69847;SDS011;57143;55.940;37.496;2023-05-16T13:48:20;10.85;;;4.07;;
69847;SDS011;57143;55.940;37.496;2023-05-16T13:50:48;9.00;;;3.55;;
69847;SDS011;57143;55.940;37.496;2023-05-16T13:53:16;9.67;;;4.37;;
69847;SDS011;57143;55.940;37.496;2023-05-16T13:55:43;12.05;;;2.95;;
69847;SDS011;57143;55.940;37.496;2023-05-16T13:58:10;7.35;;;2.65;;
69847;SDS011;57143;55.940;37.496;2023-05-16T14:00:38;9.60;;;2.80;;
69847;SDS011;57143;55.940;37.496;2023-05-16T14:03:05;5.47;;;2.38;;
69847;SDS011;57143;55.940;37.496;2023-05-16T14:05:32;6.50;;;2.20;;
69847;SDS011;57143;55.940;37.496;2023-05-16T14:08:01;10.85;;;2.80;;
69847;SDS011;57143;55.940;37.496;2023-05-16T14:10:28;8.10;;;2.42;;
69847;SDS011;57143;55.940;37.496;2023-05-16T14:12:57;7.75;;;2.55;;
69847;SDS011;57143;55.940;37.496;2023-05-16T14:15:28;10.13;;;2.40;;
69847;SDS011;57143;55.940;37.496;2023-05-16T14:17:55;9.43;;;2.30;;
69847;SDS011;57143;55.940;37.496;2023-05-16T14:20:23;9.50;;;2.15;;
69847;SDS011;57143;55.940;37.496;2023-05-16T14:22:50;10.02;;;2.03;;
69847;SDS011;57143;55.940;37.496;2023-05-16T14:25:19;8.32;;;2.30;;
69847;SDS011;57143;55.940;37.496;2023-05-16T14:27:46;7.25;;;2.15;;
69847;SDS011;57143;55.940;37.496;2023-05-16T14:30:15;8.80;;;2.57;;
69847;SDS011;57143;55.940;37.496;2023-05-16T14:32:42;7.10;;;2.83;;
69847;SDS011;57143;55.940;37.496;2023-05-16T14:35:10;10.68;;;2.65;;
69847;SDS011;57143;55.940;37.496;2023-05-16T14:37:37;6.40;;;2.35;;
69847;SDS011;57143;55.940;37.496;2023-05-16T14:40:05;13.50;;;3.03;;